createdAt,value
2022-09-06T00:01:23.534Z,93688.88
2022-09-06T00:03:50.920Z,93670.63
2022-09-06T00:06:20.113Z,93687.16
2022-09-06T00:08:48.196Z,93690.63
2022-09-06T00:11:17.038Z,93686.75
2022-09-06T00:13:44.769Z,93692.41
2022-09-06T00:16:14.537Z,93690.97
2022-09-06T00:18:41.797Z,93700.31
2022-09-06T00:21:28.237Z,93704.28
2022-09-06T00:23:55.476Z,93704.00
2022-09-06T00:26:23.283Z,93708.97
2022-09-06T00:28:50.137Z,93698.50
2022-09-06T00:31:22.709Z,93688.78
2022-09-06T00:33:50.146Z,93698.56
2022-09-06T00:36:18.214Z,93706.59
2022-09-06T00:38:44.965Z,93714.28
2022-09-06T00:41:13.452Z,93702.59
2022-09-06T00:43:41.341Z,93707.03
2022-09-06T00:46:10.676Z,93690.47
2022-09-06T00:48:39.548Z,93697.75
2022-09-06T00:51:10.277Z,93694.97
2022-09-06T00:53:37.166Z,93706.94
2022-09-06T00:56:04.434Z,93690.97
2022-09-06T00:58:31.395Z,93709.09
2022-09-06T01:00:58.409Z,93700.56
2022-09-06T01:03:26.242Z,93698.13
2022-09-06T01:06:17.093Z,93707.00
2022-09-06T01:09:14.968Z,93706.88
2022-09-06T01:11:56.573Z,93706.97
2022-09-06T01:14:35.086Z,93711.69
2022-09-06T01:17:29.087Z,93711.03
2022-09-06T01:20:14.963Z,93706.72
2022-09-06T01:23:04.703Z,93719.84
2022-09-06T01:25:49.290Z,93726.63
2022-09-06T01:28:34.410Z,93712.88
2022-09-06T01:31:25.888Z,93719.25
2022-09-06T01:34:07.575Z,93727.59
2022-09-06T01:37:08.898Z,93708.44
2022-09-06T01:39:37.608Z,93721.56
2022-09-06T01:42:12.110Z,93725.69
2022-09-06T01:44:43.836Z,93715.84
2022-09-06T01:47:14.694Z,93692.53
2022-09-06T01:50:18.187Z,93716.50
2022-09-06T01:53:04.893Z,93721.56
2022-09-06T01:55:47.138Z,93723.66
2022-09-06T01:58:19.761Z,93703.47
2022-09-06T02:01:00.057Z,93703.78
2022-09-06T02:03:49.518Z,93718.81
2022-09-06T02:06:25.502Z,93723.22
2022-09-06T02:09:07.008Z,93724.09
2022-09-06T02:11:40.935Z,93692.03
2022-09-06T02:14:14.539Z,93716.84
2022-09-06T02:16:44.545Z,93717.28
2022-09-06T02:19:14.355Z,93711.66
2022-09-06T02:21:45.321Z,93707.00
2022-09-06T02:24:19.993Z,93708.59
2022-09-06T02:26:47.709Z,93707.53
2022-09-06T02:29:16.539Z,93691.72
2022-09-06T02:31:47.545Z,93705.47
2022-09-06T02:34:17.513Z,93715.50
2022-09-06T02:36:45.018Z,93697.13
2022-09-06T02:39:12.634Z,93711.81
2022-09-06T02:41:42.290Z,93704.75
2022-09-06T02:44:09.043Z,93703.13
2022-09-06T02:46:35.665Z,93698.41
2022-09-06T02:49:02.917Z,93684.38
2022-09-06T02:51:30.062Z,93696.03
2022-09-06T02:53:56.829Z,93688.69
2022-09-06T02:56:23.426Z,93698.03
2022-09-06T02:58:50.075Z,93688.94
2022-09-06T03:01:16.715Z,93692.34
2022-09-06T03:03:43.415Z,93689.06
2022-09-06T03:06:10.219Z,93690.78
2022-09-06T03:08:36.867Z,93682.53
2022-09-06T03:11:03.794Z,93688.78
2022-09-06T03:13:30.579Z,93686.78
2022-09-06T03:15:59.802Z,93685.13
2022-09-06T03:18:29.601Z,93687.47
2022-09-06T03:20:56.625Z,93679.97
2022-09-06T03:23:25.682Z,93698.72
2022-09-06T03:25:52.747Z,93694.53
2022-09-06T03:28:20.238Z,93698.06
2022-09-06T03:30:49.194Z,93697.22
2022-09-06T03:33:16.300Z,93696.03
2022-09-06T03:35:52.734Z,93675.00
2022-09-06T03:38:19.806Z,93693.31
2022-09-06T03:40:48.181Z,93700.53
2022-09-06T03:43:16.214Z,93711.34
2022-09-06T03:45:48.144Z,93702.31
2022-09-06T03:48:16.246Z,93697.97
2022-09-06T03:50:51.466Z,93699.53
2022-09-06T03:53:19.066Z,93697.97
2022-09-06T03:55:51.322Z,93703.47
2022-09-06T03:58:19.688Z,93705.03
2022-09-06T04:00:46.621Z,93697.34
2022-09-06T04:03:14.187Z,93693.16
2022-09-06T04:05:44.779Z,93694.09
2022-09-06T04:08:11.486Z,93698.66
2022-09-06T04:10:38.579Z,93701.69
2022-09-06T04:13:05.186Z,93701.91
2022-09-06T04:15:31.955Z,93689.63
2022-09-06T04:17:58.548Z,93690.69
2022-09-06T04:20:25.241Z,93693.69
2022-09-06T04:22:51.967Z,93695.88
2022-09-06T04:25:18.567Z,93693.53
2022-09-06T04:27:45.190Z,93680.53
2022-09-06T04:30:12.050Z,93670.63
2022-09-06T04:32:38.626Z,93668.19
2022-09-06T04:35:05.828Z,93684.28
2022-09-06T04:37:32.546Z,93669.44
2022-09-06T04:39:59.289Z,93659.59
2022-09-06T04:42:25.965Z,93677.94
2022-09-06T04:44:52.641Z,93681.03
2022-09-06T04:47:19.697Z,93681.63
2022-09-06T04:49:48.185Z,93676.97
2022-09-06T04:52:15.586Z,93678.69
2022-09-06T04:54:42.307Z,93671.09
2022-09-06T04:57:09.050Z,93675.91
2022-09-06T04:59:35.849Z,93666.66
2022-09-06T05:02:02.946Z,93662.88
2022-09-06T05:04:29.690Z,93670.38
2022-09-06T05:07:01.862Z,93679.44
2022-09-06T05:09:28.805Z,93684.41
2022-09-06T05:11:56.057Z,93686.22
2022-09-06T05:14:23.171Z,93685.66
2022-09-06T05:16:50.713Z,93685.34
2022-09-06T05:19:17.870Z,93688.44
2022-09-06T05:21:44.978Z,93657.47
2022-09-06T05:24:11.813Z,93680.13
2022-09-06T05:26:38.889Z,93680.28
2022-09-06T05:29:05.678Z,93689.72
2022-09-06T05:31:34.475Z,93683.81
2022-09-06T05:34:01.560Z,93685.81
2022-09-06T05:36:29.925Z,93690.59
2022-09-06T05:38:57.723Z,93689.88
2022-09-06T05:41:25.359Z,93686.69
2022-09-06T05:43:52.467Z,93696.41
2022-09-06T05:46:19.709Z,93689.16
2022-09-06T05:48:54.358Z,93688.97
2022-09-06T05:51:21.398Z,93670.16
2022-09-06T05:53:48.194Z,93688.59
2022-09-06T05:56:15.469Z,93698.94
2022-09-06T05:58:42.209Z,93702.31
2022-09-06T06:01:22.203Z,93694.69
2022-09-06T06:03:57.014Z,93702.91
2022-09-06T06:06:24.813Z,93691.56
2022-09-06T06:08:51.529Z,93701.22
2022-09-06T06:11:18.769Z,93697.53
2022-09-06T06:13:45.758Z,93698.97
2022-09-06T06:16:15.098Z,93701.81
2022-09-06T06:18:41.883Z,93707.00
2022-09-06T06:21:45.240Z,93691.25
2022-09-06T06:24:11.830Z,93704.41
2022-09-06T06:26:38.869Z,93687.44
2022-09-06T06:29:08.171Z,93672.44
2022-09-06T06:31:36.317Z,93699.97
2022-09-06T06:34:04.032Z,93697.06
2022-09-06T06:36:35.159Z,93673.72
2022-09-06T06:39:02.740Z,93697.75
2022-09-06T06:41:31.778Z,93689.25
2022-09-06T06:44:03.596Z,93688.34
2022-09-06T06:46:32.843Z,93682.59
2022-09-06T06:49:00.003Z,93676.41
2022-09-06T06:51:29.806Z,93679.28
2022-09-06T06:53:56.911Z,93685.22
2022-09-06T06:56:26.426Z,93678.91
2022-09-06T06:58:55.526Z,93683.47
2022-09-06T07:01:22.848Z,93685.41
2022-09-06T07:03:50.128Z,93682.94
2022-09-06T07:06:18.425Z,93681.19
2022-09-06T07:08:45.807Z,93675.25
2022-09-06T07:11:14.909Z,93670.41
2022-09-06T07:13:41.958Z,93669.63
2022-09-06T07:16:23.428Z,93650.91
2022-09-06T07:18:54.383Z,93652.84
2022-09-06T07:24:05.736Z,93648.44
2022-09-06T07:26:34.035Z,93635.31
2022-09-06T07:29:02.574Z,93657.94
2022-09-06T07:34:18.105Z,93653.22
2022-09-06T07:36:44.827Z,93634.56
2022-09-06T07:39:11.412Z,93642.06
2022-09-06T07:41:37.997Z,93642.38
2022-09-06T07:44:04.961Z,93630.84
2022-09-06T07:46:31.694Z,93627.81
2022-09-06T07:48:58.422Z,93627.13
2022-09-06T07:51:25.194Z,93625.34
2022-09-06T07:54:12.820Z,93622.91
2022-09-06T07:56:42.050Z,93626.03
2022-09-06T07:59:09.315Z,93623.72
2022-09-06T08:01:37.739Z,93612.31
2022-09-06T08:04:13.096Z,93606.56
2022-09-06T08:09:29.681Z,93630.44
2022-09-06T08:11:56.334Z,93618.72
2022-09-06T08:14:23.034Z,93609.72
2022-09-06T08:16:50.273Z,93625.03
2022-09-06T08:19:18.233Z,93621.84
2022-09-06T08:21:44.954Z,93633.88
2022-09-06T08:24:11.696Z,93631.50
2022-09-06T08:26:45.019Z,93634.56
2022-09-06T08:29:12.953Z,93634.81
2022-09-06T08:31:42.878Z,93634.97
2022-09-06T08:34:12.472Z,93626.47
2022-09-06T08:36:39.220Z,93627.94
2022-09-06T08:39:09.120Z,93644.94
2022-09-06T08:42:08.142Z,93642.94
2022-09-06T08:47:21.451Z,93630.97
2022-09-06T08:49:54.614Z,93612.06
2022-09-06T08:53:06.208Z,93615.38
2022-09-06T08:55:37.730Z,93624.81
2022-09-06T08:58:22.696Z,93628.38
2022-09-06T09:01:02.997Z,93615.69
2022-09-06T09:03:37.748Z,93630.81
2022-09-06T09:06:07.774Z,93624.31
2022-09-06T09:09:06.095Z,93623.78
2022-09-06T09:11:35.882Z,93622.69
2022-09-06T09:14:10.672Z,93590.22
2022-09-06T09:16:37.431Z,93593.16
2022-09-06T09:19:05.693Z,93607.25
2022-09-06T09:21:40.435Z,93583.97
2022-09-06T09:24:10.218Z,93604.81
2022-09-06T09:26:42.619Z,93602.66
2022-09-06T09:29:12.694Z,93600.50
2022-09-06T09:31:53.752Z,93603.16
2022-09-06T09:34:36.853Z,93592.34
2022-09-06T09:40:07.035Z,93589.31
2022-09-06T09:42:37.671Z,93594.78
2022-09-06T09:45:27.168Z,93594.53
2022-09-06T09:47:54.020Z,93567.50
2022-09-06T09:50:31.401Z,93585.00
2022-09-06T09:53:09.726Z,93570.03
2022-09-06T09:55:37.014Z,93578.50
2022-09-06T09:58:04.960Z,93588.59
2022-09-06T10:00:39.807Z,93576.41
2022-09-06T10:03:17.013Z,93584.81
2022-09-06T10:06:02.530Z,93578.31
2022-09-06T10:08:32.747Z,93572.69
2022-09-06T10:10:59.476Z,93585.38
2022-09-06T10:13:31.670Z,93597.28
2022-09-06T10:16:03.031Z,93602.59
2022-09-06T10:18:32.323Z,93620.91
2022-09-06T10:21:16.324Z,93638.53
2022-09-06T10:26:59.901Z,93663.56
2022-09-06T10:29:52.994Z,93663.31
2022-09-06T10:32:31.043Z,93684.13
2022-09-06T10:35:10.938Z,93695.03
2022-09-06T10:38:01.637Z,93693.47
2022-09-06T10:40:37.236Z,93681.69
2022-09-06T10:43:08.408Z,93668.53
2022-09-06T10:45:37.666Z,93686.81
2022-09-06T10:48:27.216Z,93690.91
2022-09-06T10:51:08.849Z,93694.59
2022-09-06T10:53:46.785Z,93686.47
2022-09-06T10:56:21.399Z,93646.03
2022-09-06T11:02:15.922Z,93676.84
2022-09-06T11:07:40.212Z,93663.91
2022-09-06T11:10:30.421Z,93673.47
2022-09-06T11:13:09.394Z,93673.53
2022-09-06T11:15:51.034Z,93671.75
2022-09-06T11:18:26.251Z,93680.53
2022-09-06T11:21:09.008Z,93688.03
2022-09-06T11:24:10.642Z,93689.28
2022-09-06T11:26:58.375Z,93702.44
2022-09-06T11:29:28.078Z,93707.88
2022-09-06T11:34:54.840Z,93713.78
2022-09-06T11:37:43.726Z,93714.22
2022-09-06T11:40:27.967Z,93714.72
2022-09-06T11:42:55.225Z,93720.03
2022-09-06T11:45:40.626Z,93711.78
2022-09-06T11:48:50.397Z,93709.66
2022-09-06T11:51:35.543Z,93705.31
2022-09-06T11:54:15.410Z,93697.63
2022-09-06T11:57:02.614Z,93710.63
2022-09-06T11:59:38.327Z,93704.63
2022-09-06T12:02:26.824Z,93693.47
2022-09-06T12:05:00.500Z,93699.63
2022-09-06T12:07:29.140Z,93683.75
2022-09-06T12:09:56.107Z,93686.91
2022-09-06T12:12:45.814Z,93671.53
2022-09-06T12:15:43.431Z,93669.31
2022-09-06T12:18:30.364Z,93651.34
2022-09-06T12:20:57.861Z,93652.59
2022-09-06T12:23:36.875Z,93636.97
2022-09-06T12:26:05.628Z,93636.69
2022-09-06T12:28:49.704Z,93626.34
2022-09-06T12:31:36.664Z,93622.34
2022-09-06T12:34:24.980Z,93625.69
2022-09-06T12:37:01.496Z,93607.59
2022-09-06T12:39:28.454Z,93622.13
2022-09-06T12:41:59.739Z,93599.28
2022-09-06T12:44:55.678Z,93618.03
2022-09-06T12:47:32.034Z,93580.47
2022-09-06T12:50:10.708Z,93575.59
2022-09-06T12:52:49.454Z,93574.81
2022-09-06T12:55:36.805Z,93555.06
2022-09-06T12:58:07.680Z,93551.53
2022-09-06T13:00:42.575Z,93557.75
2022-09-06T13:03:31.010Z,93546.22
2022-09-06T13:06:02.143Z,93537.47
2022-09-06T13:08:48.614Z,93545.81
2022-09-06T13:11:23.834Z,93529.97
2022-09-06T13:13:53.026Z,93537.75
2022-09-06T13:16:28.314Z,93518.84
2022-09-06T13:18:55.162Z,93532.13
2022-09-06T13:21:29.590Z,93529.72
2022-09-06T13:23:58.947Z,93530.25
2022-09-06T13:26:39.710Z,93522.59
2022-09-06T13:29:45.093Z,93510.19
2022-09-06T13:32:14.534Z,93518.88
2022-09-06T13:34:50.728Z,93513.50
2022-09-06T13:37:17.646Z,93520.78
2022-09-06T13:39:44.583Z,93528.06
2022-09-06T13:42:23.408Z,93527.81
2022-09-06T13:44:51.032Z,93510.19
2022-09-06T13:47:17.643Z,93505.31
2022-09-06T13:49:44.393Z,93514.03
2022-09-06T13:52:11.147Z,93508.63
2022-09-06T13:54:39.091Z,93496.97
2022-09-06T13:57:05.937Z,93491.34
2022-09-06T13:59:32.585Z,93478.50
2022-09-06T14:02:09.746Z,93476.88
2022-09-06T14:04:36.911Z,93477.63
2022-09-06T14:07:05.186Z,93484.25
2022-09-06T14:09:31.830Z,93479.75
2022-09-06T14:11:59.098Z,93467.22
2022-09-06T14:14:25.806Z,93460.41
2022-09-06T14:16:53.973Z,93450.44
2022-09-06T14:19:20.762Z,93438.34
2022-09-06T14:21:47.586Z,93424.69
2022-09-06T14:24:14.345Z,93441.94
2022-09-06T14:26:41.015Z,93442.53
2022-09-06T14:29:08.198Z,93446.44
2022-09-06T14:31:34.954Z,93439.06
2022-09-06T14:34:02.839Z,93445.03
2022-09-06T14:36:31.926Z,93445.88
2022-09-06T14:38:59.692Z,93441.84
2022-09-06T14:41:27.007Z,93433.63
2022-09-06T14:43:56.000Z,93424.94
2022-09-06T14:46:24.402Z,93432.66
2022-09-06T14:49:02.649Z,93419.34
2022-09-06T14:51:30.631Z,93402.22
2022-09-06T14:54:01.577Z,93420.22
2022-09-06T14:56:28.171Z,93413.88
2022-09-06T14:58:57.413Z,93405.22
2022-09-06T15:01:27.254Z,93403.56
2022-09-06T15:03:57.086Z,93411.03
2022-09-06T15:06:25.465Z,93408.13
2022-09-06T15:08:55.737Z,93414.06
2022-09-06T15:11:37.018Z,93415.97
2022-09-06T15:14:16.714Z,93414.97
2022-09-06T15:16:44.898Z,93407.38
2022-09-06T15:19:11.781Z,93403.06
2022-09-06T15:21:38.453Z,93415.28
2022-09-06T15:24:11.154Z,93405.34
2022-09-06T15:26:39.652Z,93398.69
2022-09-06T15:29:06.360Z,93392.75
2022-09-06T15:31:34.613Z,93400.44
2022-09-06T15:34:02.771Z,93388.91
2022-09-06T15:36:30.152Z,93371.84
2022-09-06T15:39:00.917Z,93384.41
2022-09-06T15:41:29.382Z,93386.34
2022-09-06T15:43:58.057Z,93380.66
2022-09-06T15:46:37.253Z,93375.09
2022-09-06T15:49:06.845Z,93373.72
2022-09-06T15:51:35.218Z,93384.00
2022-09-06T15:54:01.947Z,93379.38
2022-09-06T15:56:28.955Z,93365.38
2022-09-06T15:58:55.658Z,93374.31
2022-09-06T16:01:24.254Z,93370.00
2022-09-06T16:04:03.454Z,93366.56
2022-09-06T16:06:33.369Z,93373.00
2022-09-06T16:09:06.117Z,93364.28
2022-09-06T16:11:35.668Z,93366.81
2022-09-06T16:14:07.855Z,93370.09
2022-09-06T16:16:35.732Z,93360.72
2022-09-06T16:19:02.751Z,93351.72
2022-09-06T16:21:32.149Z,93351.47
2022-09-06T16:24:07.886Z,93367.81
2022-09-06T16:26:38.538Z,93341.38
2022-09-06T16:29:07.202Z,93349.88
2022-09-06T16:31:37.768Z,93360.75
2022-09-06T16:34:07.734Z,93360.31
2022-09-06T16:36:34.582Z,93359.66
2022-09-06T16:39:01.558Z,93353.88
2022-09-06T16:41:40.817Z,93365.38
2022-09-06T16:44:16.603Z,93377.88
2022-09-06T16:46:48.617Z,93364.16
2022-09-06T16:49:17.803Z,93346.16
2022-09-06T16:51:45.706Z,93361.53
2022-09-06T16:54:13.801Z,93350.78
2022-09-06T16:56:42.390Z,93345.44
2022-09-06T16:59:10.473Z,93344.03
2022-09-06T17:01:41.259Z,93345.53
2022-09-06T17:04:07.974Z,93343.84
2022-09-06T17:06:38.266Z,93329.31
2022-09-06T17:09:05.215Z,93338.00
2022-09-06T17:11:31.818Z,93329.88
2022-09-06T17:13:58.446Z,93338.25
2022-09-06T17:16:44.379Z,93341.69
2022-09-06T17:19:11.583Z,93335.16
2022-09-06T17:21:39.933Z,93349.16
2022-09-06T17:24:08.066Z,93347.00
2022-09-06T17:26:37.470Z,93348.31
2022-09-06T17:29:04.618Z,93348.59
2022-09-06T17:31:31.591Z,93328.84
2022-09-06T17:33:59.822Z,93340.84
2022-09-06T17:36:30.384Z,93354.59
2022-09-06T17:39:05.453Z,93347.66
2022-09-06T17:41:38.889Z,93364.94
2022-09-06T17:44:07.250Z,93376.44
2022-09-06T17:46:34.033Z,93379.63
2022-09-06T17:49:00.747Z,93379.50
2022-09-06T17:51:27.449Z,93350.06
2022-09-06T17:53:54.400Z,93368.00
2022-09-06T17:56:21.670Z,93366.91
2022-09-06T17:58:57.069Z,93374.53
2022-09-06T18:01:25.423Z,93380.34
2022-09-06T18:03:52.939Z,93378.81
2022-09-06T18:06:22.664Z,93364.31
2022-09-06T18:08:53.011Z,93360.88
2022-09-06T18:11:28.442Z,93364.47
2022-09-06T18:13:56.075Z,93353.91
2022-09-06T18:16:22.994Z,93327.00
2022-09-06T18:18:52.684Z,93337.44
2022-09-06T18:21:19.695Z,93343.81
2022-09-06T18:23:46.779Z,93331.50
2022-09-06T18:26:14.162Z,93323.31
2022-09-06T18:28:41.085Z,93330.72
2022-09-06T18:31:10.286Z,93340.13
2022-09-06T18:33:38.237Z,93347.19
2022-09-06T18:36:06.791Z,93352.31
2022-09-06T18:38:37.611Z,93368.81
2022-09-06T18:41:06.682Z,93387.06
2022-09-06T18:43:36.342Z,93404.16
2022-09-06T18:46:08.604Z,93448.13
2022-09-06T18:48:37.140Z,93456.75
2022-09-06T18:51:08.131Z,93472.06
2022-09-06T18:53:35.245Z,93475.16
2022-09-06T18:56:02.338Z,93444.34
2022-09-06T18:58:29.573Z,93439.38
2022-09-06T19:01:08.133Z,93459.09
2022-09-06T19:03:36.449Z,93445.44
2022-09-06T19:06:15.356Z,93430.53
2022-09-06T19:08:42.641Z,93417.47
2022-09-06T19:11:12.330Z,93423.41
2022-09-06T19:13:41.623Z,93428.63
2022-09-06T19:16:09.806Z,93431.00
2022-09-06T19:18:37.758Z,93442.34
2022-09-06T19:21:08.504Z,93437.69
2022-09-06T19:23:38.326Z,93413.06
2022-09-06T19:26:09.364Z,93464.44
2022-09-06T19:28:37.656Z,93488.66
2022-09-06T19:31:13.114Z,93504.91
2022-09-06T19:33:41.020Z,93515.41
2022-09-06T19:36:12.070Z,93507.97
2022-09-06T19:39:02.121Z,93477.84
2022-09-06T19:41:27.857Z,93480.84
2022-09-06T19:43:56.459Z,93479.66
2022-09-06T19:46:24.170Z,93490.78
2022-09-06T19:48:53.661Z,93498.81
2022-09-06T19:51:20.592Z,93519.88
2022-09-06T19:53:51.437Z,93524.59
2022-09-06T19:56:23.453Z,93538.75
2022-09-06T19:58:58.387Z,93546.69
2022-09-06T20:01:29.362Z,93544.03
2022-09-06T20:03:57.094Z,93543.47
2022-09-06T20:06:23.836Z,93514.81
2022-09-06T20:08:52.728Z,93547.63
2022-09-06T20:11:21.223Z,93522.66
2022-09-06T20:13:48.326Z,93509.63
2022-09-06T20:16:15.710Z,93504.34
2022-09-06T20:18:42.486Z,93503.31
2022-09-06T20:21:09.687Z,93492.56
2022-09-06T20:23:36.882Z,93505.41
2022-09-06T20:26:07.954Z,93502.25
2022-09-06T20:28:35.137Z,93494.03
2022-09-06T20:31:08.420Z,93498.75
2022-09-06T20:33:35.790Z,93496.41
2022-09-06T20:36:05.513Z,93503.72
2022-09-06T20:38:37.321Z,93502.59
2022-09-06T20:41:06.881Z,93498.41
2022-09-06T20:43:36.504Z,93495.81
2022-09-06T20:46:06.166Z,93490.34
2022-09-06T20:48:34.418Z,93487.63
2022-09-06T20:51:04.854Z,93455.84
2022-09-06T20:53:31.874Z,93486.03
2022-09-06T20:56:04.246Z,93486.44
2022-09-06T20:58:32.020Z,93492.22
2022-09-06T21:00:59.841Z,93457.34
2022-09-06T21:03:27.223Z,93479.63
2022-09-06T21:05:54.108Z,93481.44
2022-09-06T21:08:20.822Z,93472.47
2022-09-06T21:10:47.595Z,93470.09
2022-09-06T21:13:14.427Z,93475.88
2022-09-06T21:15:41.147Z,93478.41
2022-09-06T21:18:09.138Z,93491.16
2022-09-06T21:20:36.276Z,93490.91
2022-09-06T21:23:03.561Z,93489.16
2022-09-06T21:25:30.287Z,93495.91
2022-09-06T21:27:57.195Z,93500.59
2022-09-06T21:30:24.090Z,93473.75
2022-09-06T21:32:53.839Z,93494.63
2022-09-06T21:35:20.529Z,93488.19
2022-09-06T21:37:47.189Z,93503.75
2022-09-06T21:40:13.918Z,93492.06
2022-09-06T21:42:40.876Z,93476.50
2022-09-06T21:45:07.873Z,93505.25
2022-09-06T21:47:34.476Z,93519.94
2022-09-06T21:50:01.193Z,93508.75
2022-09-06T21:52:32.315Z,93519.81
2022-09-06T21:54:59.348Z,93501.72
2022-09-06T21:57:26.024Z,93492.56
2022-09-06T21:59:52.674Z,93468.91
2022-09-06T22:02:20.037Z,93495.91
2022-09-06T22:04:47.092Z,93489.94
2022-09-06T22:07:13.801Z,93490.78
2022-09-06T22:09:40.470Z,93492.38
2022-09-06T22:12:07.237Z,93496.34
2022-09-06T22:14:33.876Z,93491.81
2022-09-06T22:17:00.532Z,93483.59
2022-09-06T22:19:27.266Z,93459.50
2022-09-06T22:21:54.469Z,93494.97
2022-09-06T22:24:21.282Z,93492.53
2022-09-06T22:26:47.895Z,93491.16
2022-09-06T22:29:15.512Z,93484.16
2022-09-06T22:31:42.921Z,93475.31
2022-09-06T22:34:10.497Z,93489.38
2022-09-06T22:36:37.337Z,93488.72
2022-09-06T22:39:04.393Z,93485.34
2022-09-06T22:41:32.155Z,93499.06
2022-09-06T22:44:03.396Z,93494.41
2022-09-06T22:46:30.389Z,93488.94
2022-09-06T22:48:57.176Z,93474.19
2022-09-06T22:51:23.898Z,93490.22
2022-09-06T22:53:50.574Z,93500.59
2022-09-06T22:56:17.348Z,93504.16
2022-09-06T22:58:44.187Z,93499.31
2022-09-06T23:01:13.221Z,93506.38
2022-09-06T23:03:41.794Z,93501.97
2022-09-06T23:06:08.652Z,93505.81
2022-09-06T23:08:38.038Z,93509.75
2022-09-06T23:11:11.102Z,93504.78
2022-09-06T23:13:38.577Z,93507.66
2022-09-06T23:16:07.280Z,93506.63
2022-09-06T23:18:34.441Z,93503.81
2022-09-06T23:21:09.278Z,93502.63
2022-09-06T23:23:38.094Z,93509.63
2022-09-06T23:26:11.946Z,93484.63
2022-09-06T23:28:39.051Z,93479.19
2022-09-06T23:31:11.122Z,93494.66
2022-09-06T23:33:38.721Z,93499.19
2022-09-06T23:36:10.467Z,93493.41
2022-09-06T23:38:39.897Z,93495.06
2022-09-06T23:41:08.341Z,93491.03
2022-09-06T23:43:34.939Z,93481.19
2022-09-06T23:46:01.907Z,93486.09
2022-09-06T23:48:28.816Z,93491.19
2022-09-06T23:50:55.600Z,93496.09
2022-09-06T23:53:22.570Z,93478.66
2022-09-06T23:55:49.224Z,93504.34
2022-09-06T23:58:15.823Z,93500.91
